createdAt,value
2018-01-07T00:00:32.714Z,7.37
2018-01-07T00:01:32.707Z,7.33
2018-01-07T00:03:24.859Z,7.33
2018-01-07T00:04:24.885Z,7.23
2018-01-07T00:06:17.064Z,7.28
2018-01-07T00:07:17.077Z,7.19
2018-01-07T00:09:09.210Z,7.14
2018-01-07T00:10:09.218Z,7.28
2018-01-07T00:12:01.388Z,7.32
2018-01-07T00:13:01.396Z,7.19
2018-01-07T00:15:09.900Z,7.13
2018-01-07T00:16:10.793Z,7.10
2018-01-07T00:18:02.108Z,7.08
2018-01-07T00:19:02.104Z,7.18
2018-01-07T00:20:54.483Z,7.08
2018-01-07T00:21:54.506Z,7.03
2018-01-07T00:23:46.687Z,7.03
2018-01-07T00:24:46.668Z,7.13
2018-01-07T00:26:38.895Z,7.11
2018-01-07T00:27:38.896Z,7.14
2018-01-07T00:29:31.080Z,7.36
2018-01-07T00:30:31.078Z,7.32
2018-01-07T00:32:33.978Z,7.15
2018-01-07T00:33:33.964Z,7.10
2018-01-07T00:35:27.128Z,7.15
2018-01-07T00:36:27.118Z,7.01
2018-01-07T00:38:20.302Z,7.08
2018-01-07T00:39:20.312Z,7.04
2018-01-07T00:41:13.474Z,7.05
2018-01-07T00:42:13.473Z,7.07
2018-01-07T00:44:06.641Z,7.10
2018-01-07T00:45:06.644Z,7.03
2018-01-07T00:47:00.091Z,6.95
2018-01-07T00:47:59.809Z,7.00
2018-01-07T00:49:52.964Z,6.96
2018-01-07T00:50:52.963Z,7.01
2018-01-07T00:52:45.152Z,6.89
2018-01-07T00:53:45.160Z,6.95
2018-01-07T00:55:37.317Z,6.87
2018-01-07T00:56:37.339Z,6.83
2018-01-07T00:58:29.585Z,6.83
2018-01-07T00:59:29.521Z,6.86
2018-01-07T01:01:21.701Z,6.90
2018-01-07T01:02:21.733Z,6.82
2018-01-07T01:04:14.168Z,6.95
2018-01-07T01:05:13.896Z,6.85
2018-01-07T01:07:07.035Z,6.85
2018-01-07T01:08:07.054Z,6.90
2018-01-07T01:10:00.236Z,6.86
2018-01-07T01:11:00.230Z,6.93
2018-01-07T01:12:52.397Z,6.92
2018-01-07T01:13:52.402Z,6.93
2018-01-07T01:15:45.561Z,6.85
2018-01-07T01:16:45.576Z,6.83
2018-01-07T01:18:38.812Z,6.86
2018-01-07T01:19:38.835Z,6.87
2018-01-07T01:21:31.006Z,6.80
2018-01-07T01:22:31.016Z,6.72
2018-01-07T01:24:24.164Z,6.89
2018-01-07T01:25:24.181Z,6.89
2018-01-07T01:27:17.373Z,6.85
2018-01-07T01:28:17.350Z,6.71
2018-01-07T01:30:09.536Z,6.71
2018-01-07T01:31:09.517Z,6.74
2018-01-07T01:33:01.719Z,6.77
2018-01-07T01:34:01.713Z,6.75
2018-01-07T01:35:53.878Z,6.75
2018-01-07T01:36:53.889Z,6.77
2018-01-07T01:38:47.400Z,6.80
2018-01-07T01:39:47.056Z,6.85
2018-01-07T01:41:39.214Z,6.80
2018-01-07T01:42:39.225Z,6.80
2018-01-07T01:44:31.395Z,6.82
2018-01-07T01:45:31.403Z,6.71
2018-01-07T01:47:24.552Z,6.72
2018-01-07T01:48:24.562Z,6.77
2018-01-07T01:50:16.790Z,6.72
2018-01-07T01:51:16.780Z,6.72
2018-01-07T01:53:08.919Z,6.70
2018-01-07T01:54:08.939Z,6.75
2018-01-07T01:56:02.121Z,6.74
2018-01-07T01:57:02.107Z,6.74
2018-01-07T01:58:54.250Z,6.74
2018-01-07T01:59:54.270Z,6.74
2018-01-07T02:02:02.778Z,6.65
2018-01-07T02:03:02.771Z,6.72
2018-01-07T02:04:55.936Z,6.65
2018-01-07T02:05:55.945Z,6.67
2018-01-07T02:07:49.125Z,6.65
2018-01-07T02:08:49.118Z,6.62
2018-01-07T02:10:41.286Z,6.70
2018-01-07T02:11:41.408Z,6.74
2018-01-07T02:13:34.485Z,6.77
2018-01-07T02:14:34.479Z,6.64
2018-01-07T02:16:27.616Z,6.52
2018-01-07T02:17:27.621Z,6.57
2018-01-07T02:19:19.855Z,6.68
2018-01-07T02:20:19.789Z,6.57
2018-01-07T02:22:12.925Z,6.54
2018-01-07T02:23:12.953Z,6.54
2018-01-07T02:25:06.113Z,6.39
2018-01-07T02:26:06.102Z,6.41
2018-01-07T02:27:58.275Z,6.53
2018-01-07T02:28:58.287Z,6.44
2018-01-07T02:30:51.492Z,6.35
2018-01-07T02:31:51.479Z,6.46
2018-01-07T02:33:43.633Z,6.49
2018-01-07T02:34:43.637Z,6.41
2018-01-07T02:36:35.824Z,6.43
2018-01-07T02:37:35.826Z,6.43
2018-01-07T02:39:38.671Z,6.50
2018-01-07T02:40:38.698Z,6.36
2018-01-07T02:42:31.848Z,6.43
2018-01-07T02:43:31.857Z,6.31
2018-01-07T02:45:25.017Z,6.43
2018-01-07T02:46:25.028Z,6.22
2018-01-07T02:48:18.222Z,6.13
2018-01-07T02:49:18.209Z,6.25
2018-01-07T02:51:10.675Z,6.26
2018-01-07T02:52:10.405Z,6.12
2018-01-07T02:54:03.560Z,6.20
2018-01-07T02:55:03.555Z,6.29
2018-01-07T02:56:56.687Z,6.26
2018-01-07T02:57:56.713Z,6.26
2018-01-07T02:59:49.865Z,6.26
2018-01-07T03:00:49.869Z,6.10
2018-01-07T03:02:43.027Z,6.26
2018-01-07T03:03:43.049Z,6.22
2018-01-07T03:05:36.232Z,6.22
2018-01-07T03:06:36.228Z,6.34
2018-01-07T03:08:29.364Z,6.32
2018-01-07T03:09:29.387Z,6.25
2018-01-07T03:11:37.886Z,6.19
2018-01-07T03:12:37.891Z,6.26
2018-01-07T03:14:31.059Z,6.13
2018-01-07T03:15:31.073Z,6.26
2018-01-07T03:17:24.229Z,6.25
2018-01-07T03:18:24.232Z,6.22
2018-01-07T03:20:17.368Z,6.25
2018-01-07T03:21:17.384Z,6.26
2018-01-07T03:23:10.547Z,6.25
2018-01-07T03:24:10.548Z,6.26
2018-01-07T03:26:03.753Z,6.09
2018-01-07T03:27:03.779Z,6.07
2018-01-07T03:28:56.944Z,6.12
2018-01-07T03:29:56.935Z,6.09
2018-01-07T03:31:50.071Z,6.13
2018-01-07T03:32:50.109Z,6.07
2018-01-07T03:34:43.536Z,6.25
2018-01-07T03:35:43.261Z,6.12
2018-01-07T03:37:35.485Z,6.15
2018-01-07T03:38:35.501Z,6.13
2018-01-07T03:40:28.656Z,6.12
2018-01-07T03:41:28.654Z,6.07
2018-01-07T03:43:20.803Z,6.10
2018-01-07T03:44:20.824Z,6.07
2018-01-07T03:46:14.020Z,6.10
2018-01-07T03:47:14.018Z,6.02
2018-01-07T03:49:07.164Z,6.06
2018-01-07T03:50:07.176Z,5.95
2018-01-07T03:52:13.738Z,5.98
2018-01-07T03:53:13.722Z,5.99
2018-01-07T03:55:06.893Z,5.91
2018-01-07T03:56:06.893Z,5.91
2018-01-07T03:58:00.060Z,5.97
2018-01-07T03:59:00.063Z,5.91
2018-01-07T04:00:53.252Z,5.88
2018-01-07T04:01:53.270Z,5.83
2018-01-07T04:03:46.420Z,5.88
2018-01-07T04:04:46.436Z,5.88
2018-01-07T04:06:39.571Z,5.87
2018-01-07T04:07:39.603Z,5.84
2018-01-07T04:09:31.788Z,6.01
2018-01-07T04:10:31.782Z,5.87
2018-01-07T04:12:24.967Z,5.87
2018-01-07T04:13:24.984Z,5.83
2018-01-07T04:15:18.143Z,5.90
2018-01-07T04:16:18.150Z,5.90
2018-01-07T04:18:10.319Z,5.84
2018-01-07T04:19:10.322Z,5.88
2018-01-07T04:21:02.509Z,5.84
2018-01-07T04:22:02.510Z,5.87
2018-01-07T04:24:08.046Z,5.87
2018-01-07T04:25:08.062Z,5.80
2018-01-07T04:27:00.524Z,5.88
2018-01-07T04:28:00.251Z,5.87
2018-01-07T04:29:53.421Z,5.79
2018-01-07T04:30:53.408Z,5.81
2018-01-07T04:32:45.608Z,5.90
2018-01-07T04:33:45.636Z,5.80
2018-01-07T04:35:38.748Z,5.83
2018-01-07T04:36:38.769Z,5.84
2018-01-07T04:38:31.916Z,5.84
2018-01-07T04:39:31.922Z,5.88
2018-01-07T04:41:24.083Z,5.80
2018-01-07T04:42:24.099Z,5.80
2018-01-07T04:44:17.325Z,5.72
2018-01-07T04:45:17.316Z,5.76
2018-01-07T04:47:22.878Z,5.76
2018-01-07T04:48:22.874Z,5.84
2018-01-07T04:50:16.033Z,5.88
2018-01-07T04:51:16.038Z,5.73
2018-01-07T04:53:09.180Z,5.74
2018-01-07T04:54:09.205Z,5.79
2018-01-07T04:56:02.358Z,5.92
2018-01-07T04:57:02.359Z,5.76
2018-01-07T04:58:54.495Z,5.74
2018-01-07T04:59:54.540Z,5.73
2018-01-07T05:01:47.662Z,5.70
2018-01-07T05:02:47.663Z,5.67
2018-01-07T05:04:40.790Z,5.77
2018-01-07T05:05:40.808Z,5.65
2018-01-07T05:07:32.987Z,5.79
2018-01-07T05:08:32.994Z,5.67
2018-01-07T05:10:26.130Z,5.70
2018-01-07T05:11:26.141Z,5.61
2018-01-07T05:13:18.362Z,5.65
2018-01-07T05:14:18.351Z,5.61
2018-01-07T05:16:11.492Z,5.64
2018-01-07T05:17:11.554Z,5.69
2018-01-07T05:19:03.700Z,5.72
2018-01-07T05:20:03.686Z,5.67
2018-01-07T05:21:56.826Z,5.67
2018-01-07T05:22:56.845Z,5.64
2018-01-07T05:24:49.002Z,5.58
2018-01-07T05:25:48.992Z,5.69
2018-01-07T05:27:42.165Z,5.52
2018-01-07T05:28:42.164Z,5.58
2018-01-07T05:34:29.531Z,5.55
2018-01-07T05:35:29.529Z,5.52
2018-01-07T05:37:39.060Z,5.56
2018-01-07T05:38:39.070Z,5.44
2018-01-07T05:40:31.246Z,5.52
2018-01-07T05:41:31.258Z,5.62
2018-01-07T05:43:24.414Z,5.51
2018-01-07T05:44:24.430Z,5.51
2018-01-07T05:46:17.600Z,5.49
2018-01-07T05:47:17.573Z,5.54
2018-01-07T05:49:09.734Z,5.55
2018-01-07T05:50:09.739Z,5.59
2018-01-07T05:52:18.257Z,5.51
2018-01-07T05:53:18.277Z,5.46
2018-01-07T05:55:11.465Z,5.54
2018-01-07T05:56:11.470Z,5.52
2018-01-07T05:58:20.966Z,5.47
2018-01-07T05:59:20.990Z,5.54
2018-01-07T06:01:14.193Z,5.52
2018-01-07T06:02:14.208Z,5.43
2018-01-07T06:04:08.097Z,5.43
2018-01-07T06:05:07.362Z,5.55
2018-01-07T06:07:00.521Z,5.46
2018-01-07T06:08:00.521Z,5.33
2018-01-07T06:09:53.673Z,5.31
2018-01-07T06:10:53.677Z,5.41
2018-01-07T06:12:46.846Z,5.38
2018-01-07T06:13:46.838Z,5.31
2018-01-07T06:15:39.997Z,5.31
2018-01-07T06:16:39.998Z,5.29
2018-01-07T06:18:32.199Z,5.44
2018-01-07T06:19:32.187Z,5.33
2018-01-07T06:21:38.711Z,5.29
2018-01-07T06:22:38.711Z,5.28
2018-01-07T06:24:31.874Z,5.33
2018-01-07T06:25:31.882Z,5.26
2018-01-07T06:27:25.019Z,5.29
2018-01-07T06:28:25.037Z,5.28
2018-01-07T06:30:18.464Z,5.33
2018-01-07T06:31:18.189Z,5.33
2018-01-07T06:33:11.348Z,5.33
2018-01-07T06:34:11.346Z,5.29
2018-01-07T06:36:04.514Z,5.37
2018-01-07T06:37:04.510Z,5.28
2018-01-07T06:38:57.669Z,5.29
2018-01-07T06:39:57.671Z,5.26
2018-01-07T06:41:49.855Z,5.25
2018-01-07T06:42:49.854Z,5.25
2018-01-07T06:44:43.014Z,5.31
2018-01-07T06:45:43.016Z,5.20
2018-01-07T06:47:36.226Z,5.10
2018-01-07T06:48:36.197Z,5.16
2018-01-07T06:50:29.353Z,5.07
2018-01-07T06:51:29.389Z,5.05
2018-01-07T06:53:22.547Z,5.15
2018-01-07T06:54:22.558Z,5.05
2018-01-07T06:56:29.023Z,5.18
2018-01-07T06:57:29.025Z,5.08
2018-01-07T06:59:22.235Z,5.05
2018-01-07T07:00:22.243Z,5.12
2018-01-07T07:02:15.383Z,5.01
2018-01-07T07:03:15.394Z,5.13
2018-01-07T07:05:07.548Z,5.05
2018-01-07T07:06:07.546Z,5.08
2018-01-07T07:08:00.698Z,5.05
2018-01-07T07:09:00.708Z,5.02
2018-01-07T07:10:53.893Z,5.08
2018-01-07T07:11:53.863Z,5.02
2018-01-07T07:13:47.013Z,5.16
2018-01-07T07:14:47.029Z,5.07
2018-01-07T07:16:40.220Z,5.02
2018-01-07T07:17:40.181Z,5.10
2018-01-07T07:19:33.332Z,5.02
2018-01-07T07:20:33.338Z,5.02
2018-01-07T07:22:26.501Z,5.01
2018-01-07T07:23:26.510Z,5.04
2018-01-07T07:25:19.686Z,5.05
2018-01-07T07:26:19.682Z,5.10
2018-01-07T07:28:11.855Z,5.01
2018-01-07T07:29:11.844Z,4.98
2018-01-07T07:31:04.043Z,5.07
2018-01-07T07:32:04.059Z,5.02
2018-01-07T07:33:57.499Z,5.01
2018-01-07T07:34:57.229Z,4.97
2018-01-07T07:36:49.374Z,4.97
2018-01-07T07:37:49.398Z,5.00
2018-01-07T07:39:42.551Z,4.92
2018-01-07T07:40:42.549Z,4.98
2018-01-07T07:42:35.805Z,5.02
2018-01-07T07:43:35.756Z,5.05
2018-01-07T07:45:27.923Z,5.13
2018-01-07T07:46:27.925Z,5.07
2018-01-07T07:48:21.069Z,5.05
2018-01-07T07:49:21.081Z,5.07
2018-01-07T07:51:14.255Z,5.02
2018-01-07T07:52:14.245Z,4.97
2018-01-07T07:54:07.381Z,4.97
2018-01-07T07:55:07.391Z,4.97
2018-01-07T07:57:00.558Z,4.97
2018-01-07T07:58:00.555Z,4.98
2018-01-07T08:00:03.464Z,5.04
2018-01-07T08:01:03.429Z,5.04
2018-01-07T08:02:56.613Z,5.01
2018-01-07T08:03:56.617Z,5.07
2018-01-07T08:05:48.750Z,5.05
2018-01-07T08:06:48.771Z,5.18
2018-01-07T08:08:41.975Z,5.12
2018-01-07T08:09:41.974Z,5.16
2018-01-07T08:11:34.199Z,5.20
2018-01-07T08:12:34.223Z,5.15
2018-01-07T08:14:27.443Z,5.07
2018-01-07T08:15:27.376Z,5.15
2018-01-07T08:17:20.538Z,5.18
2018-01-07T08:18:20.550Z,5.10
2018-01-07T08:20:13.733Z,5.22
2018-01-07T08:21:13.722Z,5.20
2018-01-07T08:23:06.880Z,5.02
2018-01-07T08:24:06.905Z,5.02
2018-01-07T08:26:00.342Z,5.08
2018-01-07T08:27:00.052Z,5.04
2018-01-07T08:28:52.203Z,5.12
2018-01-07T08:29:52.223Z,5.07
2018-01-07T08:31:45.380Z,5.07
2018-01-07T08:32:45.371Z,5.08
2018-01-07T08:34:38.607Z,5.19
2018-01-07T08:35:38.614Z,5.08
2018-01-07T08:37:30.797Z,5.18
2018-01-07T08:38:30.802Z,5.07
2018-01-07T08:40:23.948Z,5.08
2018-01-07T08:41:23.948Z,5.02
2018-01-07T08:43:17.128Z,5.10
2018-01-07T08:44:17.108Z,5.10
2018-01-07T08:46:09.289Z,5.20
2018-01-07T08:47:09.307Z,5.22
2018-01-07T08:49:01.478Z,5.16
2018-01-07T08:50:01.477Z,5.20
2018-01-07T08:51:53.638Z,5.05
2018-01-07T08:52:53.653Z,5.20
2018-01-07T08:54:45.814Z,5.16
2018-01-07T08:55:45.823Z,5.02
2018-01-07T08:57:38.981Z,5.05
2018-01-07T08:58:38.969Z,5.02
2018-01-07T09:00:32.129Z,5.02
2018-01-07T09:01:32.135Z,5.04
2018-01-07T09:03:24.304Z,5.05
2018-01-07T09:04:24.343Z,5.02
2018-01-07T09:06:17.590Z,5.18
2018-01-07T09:07:17.553Z,5.02
2018-01-07T09:09:10.701Z,5.10
2018-01-07T09:10:10.728Z,5.15
2018-01-07T09:12:03.150Z,5.16
2018-01-07T09:13:02.867Z,5.15
2018-01-07T09:14:56.010Z,5.10
2018-01-07T09:15:56.038Z,5.12
2018-01-07T09:17:49.467Z,5.16
2018-01-07T09:18:49.194Z,5.12
2018-01-07T09:20:42.358Z,5.36
2018-01-07T09:21:42.373Z,5.23
2018-01-07T09:23:35.558Z,5.33
2018-01-07T09:24:35.534Z,5.31
2018-01-07T09:26:28.735Z,5.36
2018-01-07T09:27:28.730Z,5.40
2018-01-07T09:29:32.744Z,5.26
2018-01-07T09:30:32.564Z,5.23
2018-01-07T09:32:25.704Z,5.31
2018-01-07T09:33:25.728Z,5.25
2018-01-07T09:35:18.903Z,5.25
2018-01-07T09:36:18.881Z,5.25
2018-01-07T09:38:12.129Z,5.16
2018-01-07T09:39:12.143Z,5.25
2018-01-07T09:41:05.281Z,5.18
2018-01-07T09:42:05.289Z,5.20
2018-01-07T09:43:58.449Z,5.15
2018-01-07T09:44:58.470Z,5.15
2018-01-07T09:46:51.673Z,5.13
2018-01-07T09:47:51.654Z,5.15
2018-01-07T09:49:43.828Z,4.98
2018-01-07T09:50:43.851Z,5.02
2018-01-07T09:52:36.291Z,5.02
2018-01-07T09:53:36.024Z,5.10
2018-01-07T09:55:28.162Z,5.08
2018-01-07T09:56:28.210Z,5.07
2018-01-07T09:58:20.491Z,4.98
2018-01-07T09:59:20.508Z,5.08
2018-01-07T10:01:13.706Z,5.13
2018-01-07T10:02:13.740Z,5.07
2018-01-07T10:04:05.907Z,5.08
2018-01-07T10:05:05.907Z,5.12
2018-01-07T10:06:59.066Z,5.15
2018-01-07T10:07:59.072Z,5.16
2018-01-07T10:09:52.550Z,5.15
2018-01-07T10:10:52.323Z,5.18
2018-01-07T10:12:44.504Z,5.28
2018-01-07T10:13:44.497Z,5.33
2018-01-07T10:15:37.727Z,5.33
2018-01-07T10:16:37.750Z,5.23
2018-01-07T10:18:30.930Z,5.07
2018-01-07T10:19:30.947Z,5.19
2018-01-07T10:21:24.092Z,5.12
2018-01-07T10:22:24.090Z,5.18
2018-01-07T10:24:17.243Z,5.28
2018-01-07T10:25:17.246Z,5.15
2018-01-07T10:27:09.401Z,5.18
2018-01-07T10:28:09.403Z,5.22
2018-01-07T10:30:01.620Z,5.18
2018-01-07T10:31:01.639Z,5.19
2018-01-07T10:32:54.114Z,5.18
2018-01-07T10:33:53.846Z,5.20
2018-01-07T10:35:47.008Z,5.13
2018-01-07T10:36:47.021Z,5.10
2018-01-07T10:38:40.448Z,5.22
2018-01-07T10:39:40.179Z,5.18
2018-01-07T10:41:32.372Z,5.16
2018-01-07T10:42:32.378Z,5.15
2018-01-07T10:44:24.842Z,5.20
2018-01-07T10:45:24.564Z,5.20
2018-01-07T10:47:17.729Z,5.18
2018-01-07T10:48:17.736Z,5.15
2018-01-07T10:50:10.904Z,5.16
2018-01-07T10:51:10.896Z,5.23
2018-01-07T10:53:04.051Z,5.25
2018-01-07T10:54:04.063Z,5.25
2018-01-07T10:55:57.207Z,5.33
2018-01-07T10:56:57.216Z,5.33
2018-01-07T10:58:49.358Z,5.37
2018-01-07T10:59:49.366Z,5.36
2018-01-07T11:01:42.831Z,5.43
2018-01-07T11:02:42.567Z,5.46
2018-01-07T11:04:34.751Z,5.29
2018-01-07T11:05:34.768Z,5.31
2018-01-07T11:07:26.955Z,5.46
2018-01-07T11:08:26.929Z,5.41
2018-01-07T11:10:20.194Z,5.44
2018-01-07T11:11:20.112Z,5.40
2018-01-07T11:13:13.275Z,5.44
2018-01-07T11:14:13.262Z,5.49
2018-01-07T11:16:05.438Z,5.49
2018-01-07T11:17:05.455Z,5.47
2018-01-07T11:18:58.863Z,5.49
2018-01-07T11:19:58.612Z,5.67
2018-01-07T11:22:04.193Z,5.58
2018-01-07T11:23:04.207Z,5.62
2018-01-07T11:24:57.366Z,5.62
2018-01-07T11:25:57.361Z,5.64
2018-01-07T11:27:50.573Z,5.65
2018-01-07T11:28:50.584Z,5.59
2018-01-07T11:30:43.738Z,5.62
2018-01-07T11:31:43.743Z,5.61
2018-01-07T11:33:36.880Z,5.67
2018-01-07T11:34:36.913Z,5.73
2018-01-07T11:36:30.117Z,5.97
2018-01-07T11:37:30.068Z,5.90
2018-01-07T11:39:23.271Z,5.94
2018-01-07T11:40:23.235Z,5.92
2018-01-07T11:42:16.500Z,5.80
2018-01-07T11:43:16.495Z,5.72
2018-01-07T11:45:09.623Z,5.83
2018-01-07T11:46:10.379Z,5.77
2018-01-07T11:48:03.095Z,5.84
2018-01-07T11:49:02.815Z,5.74
2018-01-07T11:50:55.943Z,5.72
2018-01-07T11:51:55.972Z,5.79
2018-01-07T11:53:49.126Z,5.87
2018-01-07T11:54:49.126Z,5.81
2018-01-07T11:56:42.371Z,5.62
2018-01-07T11:57:42.290Z,5.69
2018-01-07T11:59:35.453Z,5.56
2018-01-07T12:00:35.438Z,5.58
2018-01-07T12:02:28.594Z,5.64
2018-01-07T12:03:28.612Z,5.64
2018-01-07T12:05:22.046Z,5.46
2018-01-07T12:06:21.772Z,5.52
2018-01-07T12:08:14.932Z,5.47
2018-01-07T12:09:14.932Z,5.52
2018-01-07T12:11:08.121Z,5.47
2018-01-07T12:12:08.095Z,5.47
2018-01-07T12:14:01.247Z,5.44
2018-01-07T12:15:01.257Z,5.31
2018-01-07T12:16:54.411Z,5.25
2018-01-07T12:17:54.411Z,5.16
2018-01-07T12:19:48.308Z,5.25
2018-01-07T12:20:47.573Z,5.18
2018-01-07T12:22:41.002Z,5.22
2018-01-07T12:23:40.756Z,5.13
2018-01-07T12:25:33.924Z,5.28
2018-01-07T12:26:33.898Z,5.28
2018-01-07T12:28:27.056Z,5.26
2018-01-07T12:29:27.053Z,5.26
2018-01-07T12:31:20.192Z,5.26
2018-01-07T12:32:20.217Z,5.22
2018-01-07T12:34:13.378Z,5.22
2018-01-07T12:35:13.376Z,5.19
2018-01-07T12:37:06.528Z,5.07
2018-01-07T12:38:06.534Z,5.10
2018-01-07T12:39:59.959Z,5.16
2018-01-07T12:40:59.688Z,5.15
2018-01-07T12:42:52.829Z,5.13
2018-01-07T12:43:52.845Z,5.01
2018-01-07T12:45:46.010Z,5.07
2018-01-07T12:46:46.005Z,5.13
2018-01-07T12:48:39.164Z,5.15
2018-01-07T12:49:39.178Z,5.26
2018-01-07T12:51:32.585Z,5.13
2018-01-07T12:52:32.330Z,5.19
2018-01-07T12:54:25.474Z,5.15
2018-01-07T12:55:25.494Z,5.19
2018-01-07T12:57:18.651Z,5.20
2018-01-07T12:58:18.669Z,5.23
2018-01-07T13:00:11.816Z,5.05
2018-01-07T13:01:11.816Z,5.18
2018-01-07T13:03:04.974Z,5.16
2018-01-07T13:04:04.992Z,5.08
2018-01-07T13:05:58.111Z,5.13
2018-01-07T13:06:58.150Z,5.20
2018-01-07T13:08:51.299Z,5.25
2018-01-07T13:09:51.290Z,5.19
2018-01-07T13:11:44.433Z,5.20
2018-01-07T13:12:44.468Z,5.13
2018-01-07T13:14:37.885Z,5.07
2018-01-07T13:15:37.613Z,5.07
2018-01-07T13:17:30.775Z,5.12
2018-01-07T13:18:30.814Z,5.00
2018-01-07T13:20:23.969Z,5.02
2018-01-07T13:21:24.094Z,5.04
2018-01-07T13:23:17.163Z,5.04
2018-01-07T13:24:17.174Z,4.97
2018-01-07T13:26:10.317Z,5.04
2018-01-07T13:27:10.319Z,5.02
2018-01-07T13:29:03.473Z,5.05
2018-01-07T13:30:03.489Z,5.01
2018-01-07T13:31:56.896Z,5.07
2018-01-07T13:32:56.635Z,5.10
2018-01-07T13:34:49.783Z,5.05
2018-01-07T13:35:49.796Z,5.12
2018-01-07T13:37:42.956Z,5.05
2018-01-07T13:38:42.950Z,5.02
2018-01-07T13:40:36.110Z,5.20
2018-01-07T13:41:36.116Z,5.05
2018-01-07T13:43:29.278Z,5.08
2018-01-07T13:44:29.283Z,5.07
2018-01-07T13:46:22.419Z,5.02
2018-01-07T13:47:22.433Z,5.00
2018-01-07T13:49:15.858Z,4.97
2018-01-07T13:50:15.594Z,4.98
2018-01-07T13:52:08.787Z,4.98
2018-01-07T13:53:08.824Z,4.94
2018-01-07T13:55:01.990Z,4.94
2018-01-07T13:56:01.924Z,4.94
2018-01-07T13:57:55.062Z,4.98
2018-01-07T13:58:55.093Z,4.97
2018-01-07T14:00:48.219Z,4.95
2018-01-07T14:01:48.224Z,5.00
2018-01-07T14:03:41.379Z,5.00
2018-01-07T14:04:41.397Z,4.94
2018-01-07T14:06:52.006Z,4.94
2018-01-07T14:07:51.867Z,4.95
2018-01-07T14:09:45.126Z,4.98
2018-01-07T14:10:45.144Z,5.02
2018-01-07T14:12:38.331Z,4.94
2018-01-07T14:13:38.333Z,4.94
2018-01-07T14:15:31.472Z,4.86
2018-01-07T14:16:31.495Z,4.78
2018-01-07T14:18:24.922Z,4.84
2018-01-07T14:19:24.652Z,4.64
2018-01-07T14:21:17.802Z,4.57
2018-01-07T14:22:17.814Z,4.61
2018-01-07T14:24:10.978Z,4.61
2018-01-07T14:25:10.984Z,4.50
2018-01-07T14:27:04.242Z,4.48
2018-01-07T14:28:04.139Z,4.50
2018-01-07T14:29:57.288Z,4.46
2018-01-07T14:30:57.296Z,4.48
2018-01-07T14:32:50.454Z,4.46
2018-01-07T14:33:50.455Z,4.48
2018-01-07T14:35:55.610Z,4.48
2018-01-07T14:36:55.322Z,4.45
2018-01-07T14:38:48.471Z,4.46
2018-01-07T14:39:48.487Z,4.49
2018-01-07T14:41:41.648Z,4.42
2018-01-07T14:42:41.651Z,4.43
2018-01-07T14:44:34.809Z,4.48
2018-01-07T14:45:34.813Z,4.46
2018-01-07T14:47:27.999Z,4.34
2018-01-07T14:48:28.007Z,4.40
2018-01-07T14:50:21.148Z,4.25
2018-01-07T14:51:21.151Z,4.30
2018-01-07T14:53:14.610Z,4.27
2018-01-07T14:54:14.313Z,4.24
2018-01-07T14:56:07.498Z,4.30
2018-01-07T14:57:07.522Z,4.20
2018-01-07T14:59:00.698Z,4.20
2018-01-07T15:00:00.708Z,4.32
2018-01-07T15:01:53.837Z,4.20
2018-01-07T15:02:53.836Z,4.24
2018-01-07T15:04:46.999Z,4.21
2018-01-07T15:05:46.992Z,4.16
2018-01-07T15:07:40.150Z,4.16
2018-01-07T15:08:40.161Z,4.04
2018-01-07T15:10:33.573Z,4.12
2018-01-07T15:11:33.325Z,4.12
2018-01-07T15:13:26.468Z,4.10
2018-01-07T15:14:26.489Z,4.16
2018-01-07T15:16:19.636Z,4.07
2018-01-07T15:17:19.645Z,4.12
2018-01-07T15:19:12.789Z,4.02
2018-01-07T15:20:12.817Z,4.03
2018-01-07T15:22:05.973Z,4.02
2018-01-07T15:23:05.962Z,4.02
2018-01-07T15:24:59.128Z,4.07
2018-01-07T15:25:59.135Z,3.95
2018-01-07T15:27:52.558Z,4.07
2018-01-07T15:28:52.305Z,3.99
2018-01-07T15:30:45.473Z,4.07
2018-01-07T15:31:45.475Z,3.95
2018-01-07T15:33:38.653Z,4.02
2018-01-07T15:34:38.655Z,3.92
2018-01-07T15:36:31.810Z,3.95
2018-01-07T15:37:31.828Z,3.99
2018-01-07T15:39:25.016Z,3.91
2018-01-07T15:40:25.025Z,3.91
2018-01-07T15:42:18.150Z,3.81
2018-01-07T15:43:18.165Z,3.88
2018-01-07T15:45:12.667Z,3.86
2018-01-07T15:46:12.460Z,3.82
2018-01-07T15:48:05.599Z,3.78
2018-01-07T15:49:05.640Z,3.82
2018-01-07T15:50:58.762Z,3.81
2018-01-07T15:51:58.768Z,3.88
2018-01-07T15:53:51.914Z,3.77
2018-01-07T15:54:51.964Z,3.77
2018-01-07T15:56:45.092Z,3.74
2018-01-07T15:57:45.073Z,3.76
2018-01-07T15:59:38.240Z,3.67
2018-01-07T16:00:38.244Z,3.81
2018-01-07T16:02:31.660Z,3.71
2018-01-07T16:03:31.396Z,3.76
2018-01-07T16:05:24.544Z,3.73
2018-01-07T16:06:24.562Z,3.71
2018-01-07T16:08:17.999Z,3.70
2018-01-07T16:09:17.721Z,3.64
2018-01-07T16:11:11.011Z,3.61
2018-01-07T16:12:11.027Z,3.58
2018-01-07T16:14:04.436Z,3.56
2018-01-07T16:15:04.186Z,3.63
2018-01-07T16:16:57.299Z,3.66
2018-01-07T16:17:57.339Z,3.59
2018-01-07T16:19:50.478Z,3.53
2018-01-07T16:20:50.494Z,3.55
2018-01-07T16:22:43.628Z,3.58
2018-01-07T16:23:43.657Z,3.63
2018-01-07T16:25:36.811Z,3.63
2018-01-07T16:26:36.806Z,3.61
2018-01-07T16:28:29.947Z,3.58
2018-01-07T16:29:29.966Z,3.53
2018-01-07T16:31:23.408Z,3.53
2018-01-07T16:32:23.120Z,3.56
2018-01-07T16:34:16.278Z,3.52
2018-01-07T16:35:16.289Z,3.50
2018-01-07T16:37:09.439Z,3.41
2018-01-07T16:38:09.436Z,3.56
2018-01-07T16:40:02.606Z,3.50
2018-01-07T16:41:02.612Z,3.48
2018-01-07T16:42:55.782Z,3.45
2018-01-07T16:43:55.759Z,3.45
2018-01-07T16:45:48.906Z,3.55
2018-01-07T16:46:48.919Z,3.41
2018-01-07T16:48:42.404Z,3.48
2018-01-07T16:49:42.081Z,3.41
2018-01-07T16:51:35.234Z,3.55
2018-01-07T16:52:35.258Z,3.48
2018-01-07T16:54:28.396Z,3.46
2018-01-07T16:55:28.402Z,3.45
2018-01-07T16:57:21.547Z,3.30
2018-01-07T16:58:21.573Z,3.41
2018-01-07T17:00:14.734Z,3.40
2018-01-07T17:01:14.730Z,3.36
2018-01-07T17:03:07.875Z,3.34
2018-01-07T17:04:07.878Z,3.34
2018-01-07T17:06:01.063Z,3.37
2018-01-07T17:07:01.045Z,3.36
2018-01-07T17:08:54.186Z,3.36
2018-01-07T17:09:54.232Z,3.37
2018-01-07T17:11:47.352Z,3.33
2018-01-07T17:12:47.348Z,3.30
2018-01-07T17:14:40.580Z,3.31
2018-01-07T17:15:40.514Z,3.33
2018-01-07T17:17:33.670Z,3.31
2018-01-07T17:18:33.674Z,3.29
2018-01-07T17:20:26.827Z,3.26
2018-01-07T17:21:26.840Z,3.24
2018-01-07T17:23:20.250Z,3.26
2018-01-07T17:24:19.987Z,3.24
2018-01-07T17:26:13.187Z,3.30
2018-01-07T17:27:13.150Z,3.24
2018-01-07T17:29:20.672Z,3.22
2018-01-07T17:30:20.674Z,3.24
2018-01-07T17:32:13.864Z,3.29
2018-01-07T17:33:13.824Z,3.27
2018-01-07T17:35:06.997Z,3.22
2018-01-07T17:36:07.034Z,3.22
2018-01-07T17:38:00.266Z,3.19
2018-01-07T17:39:00.260Z,3.06
2018-01-07T17:40:53.689Z,3.15
2018-01-07T17:41:53.421Z,3.12
2018-01-07T17:43:46.546Z,3.12
2018-01-07T17:44:46.561Z,3.19
2018-01-07T17:46:39.732Z,3.21
2018-01-07T17:47:39.775Z,3.13
2018-01-07T17:49:32.877Z,3.13
2018-01-07T17:50:32.875Z,3.12
2018-01-07T17:52:26.048Z,3.13
2018-01-07T17:53:26.044Z,3.00
2018-01-07T17:55:19.189Z,3.09
2018-01-07T17:56:19.200Z,3.12
2018-01-07T17:58:12.659Z,3.03
2018-01-07T17:59:12.366Z,3.05
2018-01-07T18:01:05.513Z,3.03
2018-01-07T18:02:05.534Z,2.94
2018-01-07T18:03:58.702Z,2.91
2018-01-07T18:04:58.676Z,2.93
2018-01-07T18:06:51.876Z,2.90
2018-01-07T18:07:51.856Z,2.88
2018-01-07T18:09:44.999Z,2.98
2018-01-07T18:10:45.004Z,2.97
2018-01-07T18:12:38.162Z,2.91
2018-01-07T18:13:38.163Z,2.94
2018-01-07T18:15:31.637Z,2.91
2018-01-07T18:16:31.362Z,2.97
2018-01-07T18:18:24.496Z,3.00
2018-01-07T18:19:24.501Z,2.88
2018-01-07T18:21:17.926Z,2.83
2018-01-07T18:22:17.670Z,2.94
2018-01-07T18:24:10.798Z,2.85
2018-01-07T18:25:10.851Z,2.85
2018-01-07T18:27:03.970Z,2.80
2018-01-07T18:28:04.713Z,2.82
2018-01-07T18:29:57.116Z,2.79
2018-01-07T18:30:57.132Z,2.83
2018-01-07T18:32:50.288Z,2.79
2018-01-07T18:33:50.307Z,2.75
2018-01-07T18:35:43.435Z,2.79
2018-01-07T18:36:43.446Z,2.76
2018-01-07T18:38:36.875Z,2.82
2018-01-07T18:39:36.601Z,2.73
2018-01-07T18:41:29.771Z,2.80
2018-01-07T18:42:29.766Z,2.69
2018-01-07T18:44:22.927Z,2.73
2018-01-07T18:45:22.926Z,2.72
2018-01-07T18:47:16.092Z,2.65
2018-01-07T18:48:16.085Z,2.70
2018-01-07T18:50:09.287Z,2.77
2018-01-07T18:51:09.302Z,2.72
2018-01-07T18:53:02.486Z,2.77
2018-01-07T18:54:02.469Z,2.73
2018-01-07T18:55:55.682Z,2.69
2018-01-07T18:56:55.623Z,2.72
2018-01-07T18:58:48.791Z,2.70
2018-01-07T18:59:48.780Z,2.65
2018-01-07T19:01:42.213Z,2.70
2018-01-07T19:02:41.944Z,2.79
2018-01-07T19:04:35.122Z,2.68
2018-01-07T19:05:35.126Z,2.77
2018-01-07T19:07:28.300Z,2.73
2018-01-07T19:08:28.292Z,2.68
2018-01-07T19:10:21.443Z,2.65
2018-01-07T19:11:21.457Z,2.73
2018-01-07T19:13:14.623Z,2.65
2018-01-07T19:14:14.614Z,2.62
2018-01-07T19:16:07.851Z,2.64
2018-01-07T19:17:07.860Z,2.62
2018-01-07T19:19:15.356Z,2.61